IBC958 LEMD-GCXO
Flight info
| Callsign | IBC958 |
|---|---|
| Flight time | 2h 37m |
| Altitude | 39000 |
| Route | CCS DCT ELVAR DCT BAROK UN873 SAMAR |
| Aircraft | A346/H-SDE2E3FGHIJ3J4J5M1RWXY/LB1D1 |
Departure
| Time | 2026-05-08 10:16 |
|---|---|
| Airport | Adolfo Suárez Madrid–Barajas Airport (LEMD) |
Arrival
| Time | 2026-05-08 12:54 |
|---|---|
| Airport | Tenerife Norte-Ciudad de La Laguna Airport (GCXO) |
| Time | Latitude | Longitude | Altitude | Speed | Heading |
|---|---|---|---|---|---|
| 2026-05-08 09:29 | 40.49357 | -3.56899 | 1989 ft | 0 kts | 89° |
| 2026-05-08 10:01 | 40.49357 | -3.56909 | 1989 ft | 4 kts | 89° |
| 2026-05-08 10:01 | 40.49356 | -3.56944 | 1989 ft | 4 kts | 89° |
| 2026-05-08 10:01 | 40.49357 | -3.56974 | 1989 ft | 4 kts | 99° |
| 2026-05-08 10:01 | 40.49363 | -3.56998 | 1988 ft | 4 kts | 133° |
| 2026-05-08 10:02 | 40.49378 | -3.57009 | 1990 ft | 4 kts | 172° |
| 2026-05-08 10:02 | 40.49404 | -3.57009 | 1991 ft | 4 kts | 181° |
| 2026-05-08 10:02 | 40.49416 | -3.57009 | 1991 ft | 0 kts | 179° |
| 2026-05-08 10:07 | 40.49413 | -3.57009 | 1992 ft | 1 kts | 179° |
| 2026-05-08 10:07 | 40.49396 | -3.57009 | 1988 ft | 4 kts | 179° |
| 2026-05-08 10:07 | 40.49363 | -3.57008 | 1988 ft | 6 kts | 179° |
| 2026-05-08 10:07 | 40.49315 | -3.57012 | 1990 ft | 7 kts | 197° |
| 2026-05-08 10:08 | 40.49289 | -3.57069 | 1991 ft | 9 kts | 258° |
| 2026-05-08 10:08 | 40.49279 | -3.57156 | 1989 ft | 10 kts | 268° |
| 2026-05-08 10:08 | 40.49258 | -3.57232 | 1992 ft | 10 kts | 209° |
| 2026-05-08 10:08 | 40.49184 | -3.57233 | 1991 ft | 12 kts | 177° |
| 2026-05-08 10:09 | 40.49097 | -3.57230 | 1991 ft | 13 kts | 179° |
| 2026-05-08 10:09 | 40.49001 | -3.57229 | 1989 ft | 14 kts | 179° |
| 2026-05-08 10:09 | 40.48898 | -3.57228 | 1989 ft | 15 kts | 179° |
| 2026-05-08 10:09 | 40.48796 | -3.57218 | 1991 ft | 14 kts | 153° |
| 2026-05-08 10:10 | 40.48766 | -3.57101 | 1992 ft | 15 kts | 88° |
| 2026-05-08 10:10 | 40.48769 | -3.56960 | 1991 ft | 16 kts | 90° |
| 2026-05-08 10:10 | 40.48769 | -3.56806 | 1991 ft | 18 kts | 90° |
| 2026-05-08 10:10 | 40.48770 | -3.56638 | 1991 ft | 19 kts | 90° |
| 2026-05-08 10:11 | 40.48770 | -3.56460 | 1991 ft | 20 kts | 90° |
| 2026-05-08 10:11 | 40.48770 | -3.56281 | 1991 ft | 19 kts | 90° |
| 2026-05-08 10:11 | 40.48788 | -3.56162 | 1991 ft | 12 kts | 44° |
| 2026-05-08 10:11 | 40.48871 | -3.56143 | 1989 ft | 13 kts | 359° |
| 2026-05-08 10:12 | 40.48969 | -3.56144 | 1989 ft | 15 kts | 0° |
| 2026-05-08 10:12 | 40.49073 | -3.56144 | 1992 ft | 15 kts | 0° |
| 2026-05-08 10:12 | 40.49184 | -3.56143 | 1990 ft | 16 kts | 0° |
| 2026-05-08 10:12 | 40.49303 | -3.56145 | 1989 ft | 18 kts | 359° |
| 2026-05-08 10:13 | 40.49435 | -3.56147 | 1992 ft | 18 kts | 359° |
| 2026-05-08 10:13 | 40.49516 | -3.56140 | 1991 ft | 11 kts | 14° |
| 2026-05-08 10:13 | 40.49555 | -3.56064 | 1991 ft | 12 kts | 86° |
| 2026-05-08 10:13 | 40.49554 | -3.55958 | 1990 ft | 12 kts | 93° |
| 2026-05-08 10:14 | 40.49531 | -3.55845 | 1990 ft | 13 kts | 120° |
| 2026-05-08 10:14 | 40.49464 | -3.55753 | 1991 ft | 13 kts | 141° |
| 2026-05-08 10:14 | 40.49446 | -3.55734 | 1991 ft | 0 kts | 142° |
| 2026-05-08 10:15 | 40.49437 | -3.55726 | 1991 ft | 7 kts | 142° |
| 2026-05-08 10:15 | 40.49215 | -3.55501 | 1990 ft | 77 kts | 142° |
| 2026-05-08 10:15 | 40.48605 | -3.54877 | 1991 ft | 142 kts | 139° |
| 2026-05-08 10:16 | 40.47689 | -3.53933 | 2002 ft | 189 kts | 147° |
| 2026-05-08 10:16 | 40.46582 | -3.52851 | 2494 ft | 201 kts | 145° |
| 2026-05-08 10:16 | 40.45459 | -3.51782 | 3308 ft | 198 kts | 146° |
| 2026-05-08 10:16 | 40.44320 | -3.50753 | 3991 ft | 201 kts | 148° |
| 2026-05-08 10:17 | 40.43197 | -3.49667 | 4756 ft | 200 kts | 146° |
| 2026-05-08 10:17 | 40.42104 | -3.48538 | 5458 ft | 202 kts | 147° |
| 2026-05-08 10:17 | 40.40987 | -3.47389 | 6141 ft | 207 kts | 148° |
| 2026-05-08 10:17 | 40.39823 | -3.46196 | 6684 ft | 216 kts | 148° |
| 2026-05-08 10:18 | 40.38619 | -3.44971 | 7279 ft | 222 kts | 148° |
| 2026-05-08 10:18 | 40.37369 | -3.43707 | 7823 ft | 232 kts | 144° |
| 2026-05-08 10:18 | 40.36094 | -3.42351 | 8477 ft | 238 kts | 142° |
| 2026-05-08 10:18 | 40.34828 | -3.40935 | 9220 ft | 241 kts | 143° |
| 2026-05-08 10:19 | 40.33503 | -3.39550 | 9913 ft | 246 kts | 145° |
| 2026-05-08 10:19 | 40.32011 | -3.38409 | 10421 ft | 252 kts | 167° |
| 2026-05-08 10:19 | 40.30287 | -3.38400 | 10928 ft | 258 kts | 198° |
| 2026-05-08 10:20 | 40.27767 | -3.41731 | 12285 ft | 273 kts | 248° |
| 2026-05-08 10:20 | 40.27386 | -3.44161 | 13058 ft | 276 kts | 253° |
| 2026-05-08 10:20 | 40.26977 | -3.46606 | 13868 ft | 274 kts | 250° |
| 2026-05-08 10:20 | 40.26481 | -3.49020 | 14551 ft | 275 kts | 247° |
| 2026-05-08 10:21 | 40.25876 | -3.51432 | 15078 ft | 283 kts | 249° |
| 2026-05-08 10:21 | 40.25259 | -3.54002 | 15377 ft | 299 kts | 249° |
| 2026-05-08 10:21 | 40.24643 | -3.56638 | 15667 ft | 314 kts | 249° |
| 2026-05-08 10:21 | 40.23986 | -3.59439 | 15944 ft | 329 kts | 249° |
| 2026-05-08 10:22 | 40.23296 | -3.62372 | 16210 ft | 344 kts | 249° |
| 2026-05-08 10:22 | 40.22574 | -3.65430 | 16480 ft | 358 kts | 249° |
| 2026-05-08 10:22 | 40.21823 | -3.68598 | 16748 ft | 371 kts | 250° |
| 2026-05-08 10:22 | 40.21040 | -3.71896 | 17017 ft | 385 kts | 250° |
| 2026-05-08 10:23 | 40.20236 | -3.75279 | 17440 ft | 393 kts | 250° |
| 2026-05-08 10:23 | 40.19420 | -3.78708 | 18112 ft | 396 kts | 250° |
| 2026-05-08 10:23 | 40.18595 | -3.82166 | 18755 ft | 398 kts | 250° |
| 2026-05-08 10:23 | 40.17768 | -3.85627 | 19412 ft | 399 kts | 250° |
| 2026-05-08 10:24 | 40.16935 | -3.89108 | 20007 ft | 402 kts | 250° |
| 2026-05-08 10:24 | 40.16094 | -3.92614 | 20566 ft | 405 kts | 250° |
| 2026-05-08 10:24 | 40.15244 | -3.96146 | 21123 ft | 408 kts | 250° |
| 2026-05-08 10:24 | 40.14389 | -3.99696 | 21701 ft | 410 kts | 250° |
| 2026-05-08 10:25 | 40.13527 | -4.03268 | 22272 ft | 413 kts | 250° |
| 2026-05-08 10:25 | 40.12656 | -4.06867 | 22813 ft | 416 kts | 250° |
| 2026-05-08 10:25 | 40.11780 | -4.10485 | 23356 ft | 419 kts | 249° |
| 2026-05-08 10:25 | 40.10894 | -4.14138 | 23837 ft | 422 kts | 249° |
| 2026-05-08 10:26 | 40.10002 | -4.17809 | 24272 ft | 425 kts | 249° |
| 2026-05-08 10:26 | 40.09103 | -4.21505 | 24741 ft | 427 kts | 249° |
| 2026-05-08 10:26 | 40.08198 | -4.25215 | 25186 ft | 430 kts | 249° |
| 2026-05-08 10:26 | 40.07286 | -4.28955 | 25622 ft | 432 kts | 249° |
| 2026-05-08 10:27 | 40.06367 | -4.32711 | 26065 ft | 435 kts | 249° |
| 2026-05-08 10:27 | 40.05443 | -4.36486 | 26491 ft | 438 kts | 249° |
| 2026-05-08 10:27 | 40.04510 | -4.40286 | 26927 ft | 440 kts | 249° |
| 2026-05-08 10:27 | 40.03571 | -4.44111 | 27355 ft | 443 kts | 249° |
| 2026-05-08 10:28 | 40.02625 | -4.47953 | 27750 ft | 446 kts | 249° |
| 2026-05-08 10:28 | 40.01672 | -4.51819 | 28163 ft | 448 kts | 249° |
| 2026-05-08 10:28 | 40.00715 | -4.55693 | 28699 ft | 447 kts | 249° |
| 2026-05-08 10:28 | 39.99775 | -4.59493 | 29365 ft | 445 kts | 249° |
| 2026-05-08 10:29 | 39.98813 | -4.63371 | 30055 ft | 442 kts | 249° |
| 2026-05-08 10:29 | 39.97870 | -4.67173 | 30584 ft | 439 kts | 249° |
| 2026-05-08 10:29 | 39.96941 | -4.70917 | 31044 ft | 439 kts | 249° |
| 2026-05-08 10:29 | 39.95999 | -4.74703 | 31481 ft | 438 kts | 249° |
| 2026-05-08 10:30 | 39.95057 | -4.78482 | 31939 ft | 438 kts | 249° |
| 2026-05-08 10:30 | 39.94115 | -4.82257 | 32400 ft | 437 kts | 249° |
| 2026-05-08 10:30 | 39.93172 | -4.86026 | 32846 ft | 436 kts | 249° |
| 2026-05-08 10:30 | 39.92215 | -4.89836 | 33288 ft | 435 kts | 249° |
| 2026-05-08 10:31 | 39.91288 | -4.93521 | 33874 ft | 431 kts | 249° |
| 2026-05-08 10:31 | 39.90358 | -4.97221 | 34335 ft | 428 kts | 249° |
| 2026-05-08 10:31 | 39.89428 | -5.00911 | 34682 ft | 428 kts | 249° |
| 2026-05-08 10:31 | 39.88497 | -5.04602 | 34974 ft | 429 kts | 249° |
| 2026-05-08 10:32 | 39.87564 | -5.08300 | 35272 ft | 429 kts | 249° |
| 2026-05-08 10:32 | 39.86629 | -5.11997 | 35562 ft | 429 kts | 249° |
| 2026-05-08 10:32 | 39.85694 | -5.15693 | 35846 ft | 429 kts | 249° |
| 2026-05-08 10:32 | 39.84745 | -5.19432 | 36124 ft | 429 kts | 249° |
| 2026-05-08 10:33 | 39.83820 | -5.23077 | 36373 ft | 429 kts | 249° |
| 2026-05-08 10:33 | 39.82866 | -5.26825 | 36643 ft | 429 kts | 249° |
| 2026-05-08 10:33 | 39.81937 | -5.30472 | 36890 ft | 430 kts | 249° |
| 2026-05-08 10:33 | 39.80995 | -5.34165 | 37149 ft | 430 kts | 249° |
| 2026-05-08 10:34 | 39.80051 | -5.37855 | 37388 ft | 429 kts | 249° |
| 2026-05-08 10:34 | 39.79107 | -5.41546 | 37602 ft | 430 kts | 249° |
| 2026-05-08 10:34 | 39.78160 | -5.45242 | 37755 ft | 431 kts | 249° |
| 2026-05-08 10:34 | 39.77207 | -5.48954 | 37915 ft | 432 kts | 249° |
| 2026-05-08 10:35 | 39.76251 | -5.52674 | 38069 ft | 433 kts | 250° |
| 2026-05-08 10:35 | 39.75293 | -5.56392 | 38217 ft | 434 kts | 249° |
| 2026-05-08 10:35 | 39.74330 | -5.60127 | 38358 ft | 436 kts | 249° |
| 2026-05-08 10:35 | 39.73364 | -5.63872 | 38499 ft | 436 kts | 249° |
| 2026-05-08 10:36 | 39.72394 | -5.67619 | 38623 ft | 437 kts | 249° |
| 2026-05-08 10:36 | 39.71423 | -5.71369 | 38774 ft | 438 kts | 249° |
| 2026-05-08 10:36 | 39.70448 | -5.75127 | 38869 ft | 439 kts | 249° |
| 2026-05-08 10:37 | 39.68487 | -5.82668 | 38943 ft | 441 kts | 249° |
| 2026-05-08 10:37 | 39.66518 | -5.90219 | 38951 ft | 441 kts | 249° |
| 2026-05-08 10:38 | 39.64543 | -5.97767 | 38952 ft | 439 kts | 249° |
| 2026-05-08 10:38 | 39.62579 | -6.05249 | 38957 ft | 437 kts | 249° |
| 2026-05-08 10:39 | 39.60614 | -6.12711 | 38966 ft | 436 kts | 249° |
| 2026-05-08 10:39 | 39.58645 | -6.20164 | 38960 ft | 436 kts | 249° |
| 2026-05-08 10:40 | 39.56672 | -6.27617 | 38963 ft | 436 kts | 249° |
| 2026-05-08 10:40 | 39.54691 | -6.35068 | 38956 ft | 436 kts | 249° |
| 2026-05-08 10:41 | 39.52707 | -6.42510 | 38965 ft | 436 kts | 249° |
| 2026-05-08 10:41 | 39.50499 | -6.49832 | 38971 ft | 435 kts | 244° |
| 2026-05-08 10:42 | 39.47752 | -6.56816 | 38965 ft | 434 kts | 239° |
| 2026-05-08 10:42 | 39.44771 | -6.63623 | 38967 ft | 435 kts | 242° |
| 2026-05-08 10:43 | 39.42058 | -6.70636 | 38960 ft | 435 kts | 243° |
| 2026-05-08 10:43 | 39.39346 | -6.77639 | 38958 ft | 435 kts | 243° |
| 2026-05-08 10:44 | 39.36638 | -6.84627 | 38968 ft | 434 kts | 243° |
| 2026-05-08 10:44 | 39.33934 | -6.91601 | 38954 ft | 433 kts | 243° |
| 2026-05-08 10:45 | 39.31231 | -6.98565 | 38951 ft | 433 kts | 243° |
| 2026-05-08 10:45 | 39.28540 | -7.05475 | 38951 ft | 433 kts | 243° |
| 2026-05-08 10:46 | 39.25771 | -7.12395 | 38949 ft | 433 kts | 240° |
| 2026-05-08 10:46 | 39.22415 | -7.18847 | 38947 ft | 433 kts | 232° |
| 2026-05-08 10:47 | 39.18392 | -7.24643 | 38962 ft | 433 kts | 225° |
| 2026-05-08 10:47 | 39.13790 | -7.29657 | 38953 ft | 433 kts | 218° |
| 2026-05-08 10:48 | 39.08872 | -7.34144 | 38945 ft | 432 kts | 218° |
| 2026-05-08 10:48 | 39.03956 | -7.38602 | 38949 ft | 432 kts | 218° |
| 2026-05-08 10:49 | 38.99043 | -7.43044 | 38948 ft | 432 kts | 218° |
| 2026-05-08 10:49 | 38.94952 | -7.46734 | 38948 ft | 432 kts | 218° |
| 2026-05-08 10:50 | 38.89999 | -7.51192 | 38948 ft | 432 kts | 218° |
| 2026-05-08 10:50 | 38.84292 | -7.56314 | 38939 ft | 427 kts | 218° |
| 2026-05-08 10:51 | 38.80217 | -7.59969 | 38955 ft | 426 kts | 218° |
| 2026-05-08 10:51 | 38.75358 | -7.64323 | 38959 ft | 426 kts | 218° |
| 2026-05-08 10:52 | 38.70528 | -7.68641 | 38955 ft | 426 kts | 218° |
| 2026-05-08 10:52 | 38.65665 | -7.72980 | 38952 ft | 426 kts | 218° |
| 2026-05-08 10:53 | 38.60802 | -7.77310 | 38936 ft | 424 kts | 218° |
| 2026-05-08 10:53 | 38.55960 | -7.81616 | 38947 ft | 423 kts | 218° |
| 2026-05-08 10:54 | 38.51123 | -7.85912 | 38949 ft | 423 kts | 218° |
| 2026-05-08 10:54 | 38.46276 | -7.90209 | 38958 ft | 424 kts | 218° |
| 2026-05-08 10:55 | 38.41433 | -7.94495 | 38955 ft | 424 kts | 218° |
| 2026-05-08 10:55 | 38.36584 | -7.98777 | 38948 ft | 423 kts | 218° |
| 2026-05-08 10:56 | 38.31757 | -8.03033 | 38950 ft | 422 kts | 218° |
| 2026-05-08 10:56 | 38.26927 | -8.07287 | 38952 ft | 422 kts | 218° |
| 2026-05-08 10:57 | 38.22102 | -8.11530 | 38952 ft | 422 kts | 218° |
| 2026-05-08 10:57 | 38.14858 | -8.17885 | 38951 ft | 421 kts | 218° |
| 2026-05-08 10:58 | 38.10026 | -8.22114 | 38951 ft | 422 kts | 218° |
| 2026-05-08 10:58 | 38.05192 | -8.26340 | 38951 ft | 422 kts | 218° |
| 2026-05-08 10:59 | 38.00357 | -8.30559 | 38948 ft | 422 kts | 218° |
| 2026-05-08 10:59 | 37.95519 | -8.34774 | 38958 ft | 422 kts | 218° |
| 2026-05-08 11:00 | 37.90691 | -8.38976 | 38949 ft | 420 kts | 217° |
| 2026-05-08 11:00 | 37.85871 | -8.43156 | 38941 ft | 418 kts | 218° |
| 2026-05-08 11:01 | 37.81079 | -8.47311 | 38946 ft | 417 kts | 218° |
| 2026-05-08 11:01 | 37.76289 | -8.51457 | 38941 ft | 417 kts | 218° |
| 2026-05-08 11:02 | 37.69093 | -8.57674 | 38943 ft | 417 kts | 218° |
| 2026-05-08 11:03 | 37.64297 | -8.61808 | 38944 ft | 417 kts | 218° |
| 2026-05-08 11:03 | 37.59515 | -8.65923 | 38940 ft | 415 kts | 218° |
| 2026-05-08 11:04 | 37.54755 | -8.70014 | 38940 ft | 414 kts | 218° |
| 2026-05-08 11:04 | 37.50020 | -8.74081 | 38953 ft | 414 kts | 217° |
| 2026-05-08 11:05 | 37.45227 | -8.78187 | 38947 ft | 414 kts | 217° |
| 2026-05-08 11:05 | 37.40499 | -8.82229 | 38943 ft | 414 kts | 217° |
| 2026-05-08 11:06 | 37.35744 | -8.86286 | 38936 ft | 411 kts | 217° |
| 2026-05-08 11:06 | 37.31018 | -8.90316 | 38945 ft | 410 kts | 217° |
| 2026-05-08 11:07 | 37.26300 | -8.94334 | 38947 ft | 410 kts | 217° |
| 2026-05-08 11:07 | 37.21576 | -8.98351 | 38946 ft | 410 kts | 217° |
| 2026-05-08 11:08 | 37.16854 | -9.02359 | 38946 ft | 410 kts | 217° |
| 2026-05-08 11:08 | 37.12131 | -9.06361 | 38922 ft | 409 kts | 218° |
| 2026-05-08 11:09 | 37.07422 | -9.10343 | 38952 ft | 408 kts | 218° |
| 2026-05-08 11:09 | 37.02718 | -9.14320 | 38948 ft | 408 kts | 217° |
| 2026-05-08 11:10 | 36.98010 | -9.18291 | 38946 ft | 408 kts | 217° |
| 2026-05-08 11:10 | 36.93297 | -9.22261 | 38951 ft | 408 kts | 217° |
| 2026-05-08 11:11 | 36.88584 | -9.26225 | 38941 ft | 408 kts | 217° |
| 2026-05-08 11:11 | 36.83877 | -9.30175 | 38936 ft | 406 kts | 218° |
| 2026-05-08 11:12 | 36.79184 | -9.34110 | 38943 ft | 406 kts | 218° |
| 2026-05-08 11:12 | 36.74526 | -9.38011 | 38945 ft | 406 kts | 218° |
| 2026-05-08 11:13 | 36.69836 | -9.41933 | 38937 ft | 406 kts | 218° |
| 2026-05-08 11:13 | 36.65145 | -9.45849 | 38940 ft | 406 kts | 217° |
| 2026-05-08 11:14 | 36.60452 | -9.49763 | 38923 ft | 406 kts | 217° |
| 2026-05-08 11:14 | 36.55777 | -9.53651 | 38937 ft | 403 kts | 217° |
| 2026-05-08 11:15 | 36.51111 | -9.57529 | 38934 ft | 403 kts | 217° |
| 2026-05-08 11:15 | 36.46448 | -9.61398 | 38934 ft | 403 kts | 217° |
| 2026-05-08 11:16 | 36.41784 | -9.65263 | 38937 ft | 403 kts | 217° |
| 2026-05-08 11:16 | 36.37117 | -9.69124 | 38929 ft | 403 kts | 217° |
| 2026-05-08 11:17 | 36.32451 | -9.72975 | 38925 ft | 401 kts | 218° |
| 2026-05-08 11:17 | 36.27805 | -9.76808 | 38928 ft | 400 kts | 218° |
| 2026-05-08 11:18 | 36.23162 | -9.80634 | 38920 ft | 400 kts | 218° |
| 2026-05-08 11:18 | 36.18519 | -9.84455 | 38945 ft | 401 kts | 217° |
| 2026-05-08 11:19 | 36.13854 | -9.88286 | 38930 ft | 403 kts | 217° |
| 2026-05-08 11:19 | 36.09179 | -9.92118 | 38931 ft | 403 kts | 217° |
| 2026-05-08 11:20 | 36.04512 | -9.95933 | 38929 ft | 401 kts | 218° |
| 2026-05-08 11:20 | 35.99875 | -9.99725 | 38923 ft | 400 kts | 218° |
| 2026-05-08 11:21 | 35.95310 | -10.03631 | 38922 ft | 399 kts | 221° |
| 2026-05-08 11:21 | 35.90881 | -10.07763 | 38923 ft | 399 kts | 220° |
| 2026-05-08 11:22 | 35.86444 | -10.11876 | 38929 ft | 399 kts | 220° |
| 2026-05-08 11:22 | 35.82011 | -10.15983 | 38921 ft | 399 kts | 220° |
| 2026-05-08 11:23 | 35.77598 | -10.20061 | 38909 ft | 394 kts | 221° |
| 2026-05-08 11:23 | 35.73192 | -10.24143 | 38930 ft | 398 kts | 220° |
| 2026-05-08 11:24 | 35.68758 | -10.28239 | 38920 ft | 399 kts | 220° |
| 2026-05-08 11:24 | 35.64316 | -10.32336 | 38920 ft | 399 kts | 220° |
| 2026-05-08 11:25 | 35.59874 | -10.36427 | 38922 ft | 399 kts | 220° |
| 2026-05-08 11:25 | 35.55432 | -10.40512 | 38923 ft | 399 kts | 220° |
| 2026-05-08 11:26 | 35.51014 | -10.44570 | 38921 ft | 399 kts | 220° |
| 2026-05-08 11:26 | 35.46568 | -10.48647 | 38924 ft | 399 kts | 220° |
| 2026-05-08 11:27 | 35.42116 | -10.52724 | 38920 ft | 399 kts | 220° |
| 2026-05-08 11:27 | 35.37665 | -10.56795 | 38926 ft | 399 kts | 220° |
| 2026-05-08 11:28 | 35.33207 | -10.60868 | 38918 ft | 401 kts | 220° |
| 2026-05-08 11:28 | 35.28729 | -10.64951 | 38917 ft | 401 kts | 220° |
| 2026-05-08 11:29 | 35.24270 | -10.69005 | 38906 ft | 398 kts | 220° |
| 2026-05-08 11:29 | 35.19831 | -10.73044 | 38910 ft | 397 kts | 220° |
| 2026-05-08 11:30 | 35.15396 | -10.77074 | 38916 ft | 397 kts | 220° |
| 2026-05-08 11:30 | 35.10959 | -10.81098 | 38917 ft | 397 kts | 220° |
| 2026-05-08 11:31 | 35.06519 | -10.85119 | 38915 ft | 397 kts | 220° |
| 2026-05-08 11:31 | 35.02080 | -10.89134 | 38915 ft | 397 kts | 220° |
| 2026-05-08 11:32 | 34.97652 | -10.93125 | 38899 ft | 393 kts | 221° |
| 2026-05-08 11:32 | 34.93250 | -10.97100 | 38921 ft | 395 kts | 221° |
| 2026-05-08 11:33 | 34.88822 | -11.01090 | 38919 ft | 396 kts | 221° |
| 2026-05-08 11:33 | 34.84387 | -11.05079 | 38916 ft | 396 kts | 221° |
| 2026-05-08 11:34 | 34.79950 | -11.09062 | 38916 ft | 396 kts | 221° |
| 2026-05-08 11:34 | 34.75543 | -11.13014 | 38914 ft | 396 kts | 221° |
| 2026-05-08 11:35 | 34.71109 | -11.16979 | 38907 ft | 394 kts | 221° |
| 2026-05-08 11:35 | 34.67419 | -11.20278 | 38908 ft | 392 kts | 221° |
| 2026-05-08 11:36 | 34.63026 | -11.24206 | 38912 ft | 392 kts | 221° |
| 2026-05-08 11:36 | 34.58642 | -11.28146 | 38916 ft | 392 kts | 221° |
| 2026-05-08 11:37 | 34.54256 | -11.32089 | 38931 ft | 392 kts | 221° |
| 2026-05-08 11:37 | 34.49843 | -11.36050 | 38918 ft | 395 kts | 221° |
| 2026-05-08 11:38 | 34.45445 | -11.39986 | 38878 ft | 396 kts | 221° |
| 2026-05-08 11:38 | 34.41035 | -11.43921 | 38908 ft | 391 kts | 221° |
| 2026-05-08 11:39 | 34.36656 | -11.47831 | 38917 ft | 391 kts | 221° |
| 2026-05-08 11:39 | 34.32276 | -11.51738 | 38918 ft | 391 kts | 221° |
| 2026-05-08 11:40 | 34.27893 | -11.55640 | 38921 ft | 391 kts | 221° |
| 2026-05-08 11:40 | 34.23508 | -11.59539 | 38920 ft | 391 kts | 221° |
| 2026-05-08 11:41 | 34.19121 | -11.63434 | 38918 ft | 391 kts | 221° |
| 2026-05-08 11:41 | 34.14747 | -11.67306 | 38902 ft | 387 kts | 222° |
| 2026-05-08 11:42 | 34.10417 | -11.71141 | 38916 ft | 386 kts | 222° |
| 2026-05-08 11:42 | 34.06089 | -11.74971 | 38920 ft | 386 kts | 222° |
| 2026-05-08 11:43 | 34.01762 | -11.78794 | 38918 ft | 386 kts | 222° |
| 2026-05-08 11:43 | 33.97434 | -11.82612 | 38918 ft | 385 kts | 222° |
| 2026-05-08 11:44 | 33.93104 | -11.86426 | 38924 ft | 385 kts | 222° |
| 2026-05-08 11:44 | 33.88769 | -11.90238 | 38888 ft | 385 kts | 222° |
| 2026-05-08 11:45 | 33.84463 | -11.94019 | 38914 ft | 382 kts | 222° |
| 2026-05-08 11:45 | 33.80160 | -11.97796 | 38917 ft | 382 kts | 222° |
| 2026-05-08 11:46 | 33.75859 | -12.01566 | 38925 ft | 382 kts | 222° |
| 2026-05-08 11:46 | 33.71587 | -12.05305 | 38934 ft | 383 kts | 222° |
| 2026-05-08 11:47 | 33.67237 | -12.09109 | 38923 ft | 384 kts | 222° |
| 2026-05-08 11:47 | 33.62935 | -12.12865 | 38919 ft | 384 kts | 222° |
| 2026-05-08 11:48 | 33.58608 | -12.16633 | 38902 ft | 383 kts | 222° |
| 2026-05-08 11:48 | 33.54298 | -12.20388 | 38910 ft | 383 kts | 222° |
| 2026-05-08 11:49 | 33.49990 | -12.24137 | 38933 ft | 383 kts | 222° |
| 2026-05-08 11:49 | 33.45679 | -12.27882 | 38922 ft | 383 kts | 222° |
| 2026-05-08 11:50 | 33.41363 | -12.31627 | 38917 ft | 383 kts | 222° |
| 2026-05-08 11:50 | 33.37048 | -12.35365 | 38928 ft | 383 kts | 222° |
| 2026-05-08 11:51 | 33.32729 | -12.39103 | 38872 ft | 383 kts | 222° |
| 2026-05-08 11:51 | 33.28404 | -12.42837 | 38928 ft | 384 kts | 223° |
| 2026-05-08 11:52 | 33.24068 | -12.46583 | 38929 ft | 385 kts | 223° |
| 2026-05-08 11:52 | 33.19727 | -12.50326 | 38927 ft | 385 kts | 222° |
| 2026-05-08 11:53 | 33.15388 | -12.54062 | 38927 ft | 385 kts | 222° |
| 2026-05-08 11:53 | 33.11046 | -12.57796 | 38929 ft | 385 kts | 222° |
| 2026-05-08 11:54 | 33.06700 | -12.61528 | 38932 ft | 385 kts | 222° |
| 2026-05-08 11:54 | 33.02348 | -12.65258 | 38878 ft | 386 kts | 223° |
| 2026-05-08 11:55 | 32.97992 | -12.68991 | 38918 ft | 387 kts | 223° |
| 2026-05-08 11:55 | 32.93645 | -12.72710 | 38926 ft | 387 kts | 223° |
| 2026-05-08 11:56 | 32.89243 | -12.76469 | 38925 ft | 387 kts | 223° |
| 2026-05-08 11:56 | 32.84896 | -12.80176 | 38936 ft | 387 kts | 223° |
| 2026-05-08 11:57 | 32.80515 | -12.83903 | 38934 ft | 387 kts | 223° |
| 2026-05-08 11:57 | 32.76137 | -12.87618 | 38927 ft | 387 kts | 223° |
| 2026-05-08 11:58 | 32.71755 | -12.91328 | 38927 ft | 387 kts | 223° |
| 2026-05-08 11:58 | 32.67370 | -12.95037 | 38929 ft | 387 kts | 223° |
| 2026-05-08 11:59 | 32.60792 | -13.00589 | 38929 ft | 387 kts | 223° |
| 2026-05-08 11:59 | 32.56402 | -13.04289 | 38934 ft | 387 kts | 223° |
| 2026-05-08 12:00 | 32.52013 | -13.07984 | 38937 ft | 387 kts | 223° |
| 2026-05-08 12:00 | 32.47625 | -13.11674 | 38934 ft | 387 kts | 223° |
| 2026-05-08 12:01 | 32.43227 | -13.15361 | 38930 ft | 389 kts | 223° |
| 2026-05-08 12:01 | 32.38805 | -13.19073 | 38935 ft | 389 kts | 223° |
| 2026-05-08 12:02 | 32.34376 | -13.22784 | 38939 ft | 389 kts | 223° |
| 2026-05-08 12:02 | 32.29958 | -13.26481 | 38940 ft | 389 kts | 223° |
| 2026-05-08 12:03 | 32.25533 | -13.30179 | 38941 ft | 389 kts | 223° |
| 2026-05-08 12:03 | 32.21102 | -13.33878 | 38942 ft | 389 kts | 223° |
| 2026-05-08 12:04 | 32.16708 | -13.37539 | 38892 ft | 390 kts | 223° |
| 2026-05-08 12:04 | 32.12241 | -13.41258 | 38932 ft | 390 kts | 223° |
| 2026-05-08 12:05 | 32.07830 | -13.44927 | 38947 ft | 390 kts | 223° |
| 2026-05-08 12:05 | 32.03386 | -13.48618 | 38948 ft | 390 kts | 223° |
| 2026-05-08 12:06 | 31.98939 | -13.52304 | 38952 ft | 391 kts | 223° |
| 2026-05-08 12:06 | 31.94490 | -13.55991 | 38947 ft | 391 kts | 223° |
| 2026-05-08 12:07 | 31.90034 | -13.59679 | 38949 ft | 391 kts | 223° |
| 2026-05-08 12:07 | 31.85574 | -13.63365 | 38925 ft | 392 kts | 223° |
| 2026-05-08 12:08 | 31.81103 | -13.67057 | 38944 ft | 393 kts | 223° |
| 2026-05-08 12:08 | 31.76618 | -13.70756 | 38949 ft | 393 kts | 223° |
| 2026-05-08 12:09 | 31.72146 | -13.74439 | 38954 ft | 393 kts | 223° |
| 2026-05-08 12:09 | 31.67663 | -13.78126 | 38955 ft | 393 kts | 223° |
| 2026-05-08 12:10 | 31.63182 | -13.81807 | 38954 ft | 393 kts | 223° |
| 2026-05-08 12:10 | 31.58701 | -13.85484 | 38898 ft | 393 kts | 223° |
| 2026-05-08 12:11 | 31.54204 | -13.89166 | 38937 ft | 395 kts | 223° |
| 2026-05-08 12:11 | 31.49691 | -13.92862 | 38955 ft | 395 kts | 223° |
| 2026-05-08 12:12 | 31.45174 | -13.96555 | 38961 ft | 396 kts | 223° |
| 2026-05-08 12:12 | 31.40660 | -14.00239 | 38963 ft | 396 kts | 223° |
| 2026-05-08 12:13 | 31.36143 | -14.03921 | 38966 ft | 396 kts | 223° |
| 2026-05-08 12:13 | 31.31622 | -14.07603 | 38964 ft | 396 kts | 223° |
| 2026-05-08 12:14 | 31.27111 | -14.11297 | 38940 ft | 396 kts | 223° |
| 2026-05-08 12:14 | 31.22586 | -14.15010 | 38956 ft | 397 kts | 223° |
| 2026-05-08 12:15 | 31.18056 | -14.18716 | 38965 ft | 397 kts | 223° |
| 2026-05-08 12:15 | 31.13521 | -14.22420 | 38973 ft | 398 kts | 224° |
| 2026-05-08 12:16 | 31.09010 | -14.26098 | 38971 ft | 398 kts | 224° |
| 2026-05-08 12:16 | 31.04465 | -14.29803 | 38971 ft | 398 kts | 224° |
| 2026-05-08 12:17 | 30.99922 | -14.33500 | 38973 ft | 398 kts | 224° |
| 2026-05-08 12:17 | 30.95367 | -14.37202 | 38952 ft | 400 kts | 224° |
| 2026-05-08 12:18 | 30.90792 | -14.40915 | 38984 ft | 401 kts | 224° |
| 2026-05-08 12:18 | 30.86212 | -14.44623 | 38969 ft | 401 kts | 223° |
| 2026-05-08 12:19 | 30.81628 | -14.48325 | 38982 ft | 401 kts | 223° |
| 2026-05-08 12:19 | 30.77042 | -14.52020 | 38987 ft | 401 kts | 223° |
| 2026-05-08 12:20 | 30.72458 | -14.55710 | 38968 ft | 401 kts | 223° |
| 2026-05-08 12:20 | 30.67865 | -14.59399 | 38945 ft | 402 kts | 224° |
| 2026-05-08 12:21 | 30.63249 | -14.63107 | 38974 ft | 404 kts | 223° |
| 2026-05-08 12:21 | 30.58626 | -14.66813 | 38985 ft | 404 kts | 223° |
| 2026-05-08 12:22 | 30.53999 | -14.70519 | 38989 ft | 404 kts | 223° |
| 2026-05-08 12:22 | 30.50153 | -14.73595 | 38985 ft | 404 kts | 223° |
| 2026-05-08 12:23 | 30.45523 | -14.77295 | 38990 ft | 404 kts | 223° |
| 2026-05-08 12:23 | 30.40892 | -14.80991 | 38987 ft | 404 kts | 223° |
| 2026-05-08 12:24 | 30.36256 | -14.84691 | 38957 ft | 406 kts | 223° |
| 2026-05-08 12:24 | 30.31593 | -14.88403 | 38991 ft | 407 kts | 223° |
| 2026-05-08 12:25 | 30.26923 | -14.92115 | 38991 ft | 407 kts | 223° |
| 2026-05-08 12:25 | 30.22248 | -14.95823 | 38997 ft | 408 kts | 223° |
| 2026-05-08 12:26 | 30.17569 | -14.99536 | 38994 ft | 408 kts | 223° |
| 2026-05-08 12:26 | 30.12885 | -15.03250 | 38994 ft | 408 kts | 223° |
| 2026-05-08 12:27 | 30.08200 | -15.06959 | 38971 ft | 408 kts | 223° |
| 2026-05-08 12:27 | 30.03499 | -15.10681 | 38981 ft | 410 kts | 223° |
| 2026-05-08 12:28 | 29.98812 | -15.14379 | 38666 ft | 410 kts | 223° |
| 2026-05-08 12:28 | 29.96468 | -15.16226 | 38321 ft | 407 kts | 223° |
| 2026-05-08 12:28 | 29.94136 | -15.18062 | 37899 ft | 404 kts | 223° |
| 2026-05-08 12:29 | 29.91825 | -15.19882 | 37405 ft | 401 kts | 223° |
| 2026-05-08 12:29 | 29.89521 | -15.21697 | 36863 ft | 401 kts | 223° |
| 2026-05-08 12:29 | 29.87218 | -15.23513 | 36274 ft | 401 kts | 223° |
| 2026-05-08 12:29 | 29.84911 | -15.25330 | 35677 ft | 402 kts | 223° |
| 2026-05-08 12:30 | 29.82601 | -15.27149 | 35098 ft | 403 kts | 223° |
| 2026-05-08 12:30 | 29.80283 | -15.28972 | 34515 ft | 404 kts | 223° |
| 2026-05-08 12:30 | 29.77961 | -15.30797 | 33914 ft | 405 kts | 223° |
| 2026-05-08 12:30 | 29.75631 | -15.32629 | 33249 ft | 406 kts | 222° |
| 2026-05-08 12:31 | 29.73294 | -15.34465 | 32626 ft | 406 kts | 222° |
| 2026-05-08 12:31 | 29.70959 | -15.36298 | 32011 ft | 407 kts | 221° |
| 2026-05-08 12:31 | 29.68617 | -15.38134 | 31391 ft | 407 kts | 221° |
| 2026-05-08 12:31 | 29.66271 | -15.39972 | 30781 ft | 408 kts | 221° |
| 2026-05-08 12:32 | 29.63918 | -15.41815 | 30159 ft | 409 kts | 220° |
| 2026-05-08 12:32 | 29.61560 | -15.43660 | 29443 ft | 411 kts | 220° |
| 2026-05-08 12:32 | 29.59194 | -15.45508 | 28761 ft | 411 kts | 220° |
| 2026-05-08 12:32 | 29.56834 | -15.47349 | 28133 ft | 410 kts | 220° |
| 2026-05-08 12:33 | 29.54475 | -15.49189 | 27495 ft | 410 kts | 220° |
| 2026-05-08 12:33 | 29.52107 | -15.51038 | 27071 ft | 413 kts | 220° |
| 2026-05-08 12:33 | 29.49735 | -15.52886 | 26639 ft | 410 kts | 220° |
| 2026-05-08 12:33 | 29.47387 | -15.54712 | 26166 ft | 407 kts | 220° |
| 2026-05-08 12:34 | 29.45048 | -15.56531 | 25694 ft | 403 kts | 220° |
| 2026-05-08 12:34 | 29.42735 | -15.58329 | 25263 ft | 399 kts | 220° |
| 2026-05-08 12:34 | 29.40445 | -15.60108 | 24831 ft | 395 kts | 220° |
| 2026-05-08 12:34 | 29.38181 | -15.61867 | 24422 ft | 391 kts | 220° |
| 2026-05-08 12:35 | 29.35937 | -15.63610 | 24012 ft | 388 kts | 220° |
| 2026-05-08 12:35 | 29.33712 | -15.65338 | 23618 ft | 384 kts | 220° |
| 2026-05-08 12:35 | 29.31508 | -15.67053 | 23076 ft | 382 kts | 219° |
| 2026-05-08 12:35 | 29.29317 | -15.68758 | 22586 ft | 379 kts | 219° |
| 2026-05-08 12:36 | 29.27142 | -15.70448 | 22119 ft | 376 kts | 219° |
| 2026-05-08 12:36 | 29.24984 | -15.72122 | 21671 ft | 372 kts | 219° |
| 2026-05-08 12:36 | 29.22848 | -15.73778 | 21236 ft | 369 kts | 219° |
| 2026-05-08 12:36 | 29.20726 | -15.75422 | 20800 ft | 367 kts | 219° |
| 2026-05-08 12:37 | 29.18620 | -15.77053 | 20374 ft | 364 kts | 219° |
| 2026-05-08 12:37 | 29.16526 | -15.78673 | 19897 ft | 362 kts | 219° |
| 2026-05-08 12:37 | 29.14441 | -15.80288 | 19466 ft | 361 kts | 218° |
| 2026-05-08 12:37 | 29.12365 | -15.81893 | 19036 ft | 360 kts | 218° |
| 2026-05-08 12:38 | 29.10319 | -15.83473 | 18611 ft | 359 kts | 218° |
| 2026-05-08 12:38 | 29.08252 | -15.85069 | 18156 ft | 358 kts | 218° |
| 2026-05-08 12:38 | 29.06183 | -15.86664 | 17689 ft | 357 kts | 218° |
| 2026-05-08 12:38 | 29.04130 | -15.88246 | 17243 ft | 355 kts | 218° |
| 2026-05-08 12:39 | 29.02085 | -15.89820 | 16805 ft | 353 kts | 218° |
| 2026-05-08 12:39 | 29.00057 | -15.91382 | 16395 ft | 351 kts | 218° |
| 2026-05-08 12:39 | 28.98037 | -15.92936 | 15983 ft | 349 kts | 218° |
| 2026-05-08 12:39 | 28.96028 | -15.94483 | 15570 ft | 348 kts | 218° |
| 2026-05-08 12:40 | 28.94024 | -15.96025 | 15135 ft | 347 kts | 218° |
| 2026-05-08 12:40 | 28.92025 | -15.97561 | 14722 ft | 345 kts | 218° |
| 2026-05-08 12:40 | 28.90033 | -15.99093 | 14309 ft | 344 kts | 218° |
| 2026-05-08 12:40 | 28.88048 | -16.00616 | 13885 ft | 344 kts | 218° |
| 2026-05-08 12:41 | 28.86063 | -16.02139 | 13423 ft | 343 kts | 218° |
| 2026-05-08 12:41 | 28.84088 | -16.03659 | 12952 ft | 341 kts | 218° |
| 2026-05-08 12:41 | 28.82124 | -16.05163 | 12548 ft | 339 kts | 218° |
| 2026-05-08 12:41 | 28.80169 | -16.06659 | 12132 ft | 337 kts | 218° |
| 2026-05-08 12:42 | 28.78224 | -16.08147 | 11718 ft | 336 kts | 218° |
| 2026-05-08 12:42 | 28.76286 | -16.09631 | 11288 ft | 334 kts | 218° |
| 2026-05-08 12:42 | 28.74360 | -16.11104 | 10879 ft | 333 kts | 218° |
| 2026-05-08 12:42 | 28.72456 | -16.12560 | 10702 ft | 323 kts | 218° |
| 2026-05-08 12:43 | 28.70631 | -16.13951 | 10618 ft | 309 kts | 218° |
| 2026-05-08 12:43 | 28.68880 | -16.15286 | 10524 ft | 297 kts | 218° |
| 2026-05-08 12:43 | 28.67199 | -16.16569 | 10429 ft | 285 kts | 218° |
| 2026-05-08 12:43 | 28.65585 | -16.17801 | 10322 ft | 273 kts | 218° |
| 2026-05-08 12:44 | 28.64038 | -16.18981 | 10231 ft | 262 kts | 219° |
| 2026-05-08 12:44 | 28.62551 | -16.20120 | 10144 ft | 254 kts | 219° |
| 2026-05-08 12:44 | 28.61098 | -16.21232 | 10047 ft | 251 kts | 219° |
| 2026-05-08 12:44 | 28.59641 | -16.22350 | 9645 ft | 253 kts | 219° |
| 2026-05-08 12:45 | 28.58179 | -16.23470 | 9326 ft | 253 kts | 219° |
| 2026-05-08 12:45 | 28.56620 | -16.24365 | 8981 ft | 261 kts | 199° |
| 2026-05-08 12:45 | 28.54754 | -16.24402 | 8629 ft | 273 kts | 172° |
| 2026-05-08 12:45 | 28.53047 | -16.23476 | 8343 ft | 282 kts | 143° |
| 2026-05-08 12:46 | 28.51843 | -16.21668 | 8008 ft | 287 kts | 115° |
| 2026-05-08 12:46 | 28.51144 | -16.19576 | 7765 ft | 287 kts | 112° |
| 2026-05-08 12:46 | 28.50484 | -16.17456 | 7438 ft | 280 kts | 111° |
| 2026-05-08 12:46 | 28.49830 | -16.15394 | 7201 ft | 274 kts | 112° |
| 2026-05-08 12:47 | 28.49171 | -16.13378 | 6952 ft | 270 kts | 112° |
| 2026-05-08 12:47 | 28.48511 | -16.11392 | 6773 ft | 263 kts | 112° |
| 2026-05-08 12:47 | 28.47837 | -16.09517 | 6729 ft | 250 kts | 124° |
| 2026-05-08 12:47 | 28.46612 | -16.08222 | 6676 ft | 239 kts | 162° |
| 2026-05-08 12:48 | 28.45016 | -16.07943 | 6475 ft | 232 kts | 193° |
| 2026-05-08 12:48 | 28.43506 | -16.08506 | 6163 ft | 228 kts | 205° |
| 2026-05-08 12:48 | 28.42086 | -16.09294 | 5815 ft | 226 kts | 223° |
| 2026-05-08 12:48 | 28.41184 | -16.10710 | 5494 ft | 222 kts | 253° |
| 2026-05-08 12:49 | 28.41067 | -16.12417 | 5252 ft | 217 kts | 280° |
| 2026-05-08 12:49 | 28.41543 | -16.14026 | 4990 ft | 213 kts | 289° |
| 2026-05-08 12:49 | 28.42072 | -16.15588 | 4703 ft | 210 kts | 290° |
| 2026-05-08 12:49 | 28.42588 | -16.17104 | 4491 ft | 198 kts | 290° |
| 2026-05-08 12:50 | 28.43059 | -16.18495 | 4368 ft | 178 kts | 290° |
| 2026-05-08 12:50 | 28.43480 | -16.19740 | 4264 ft | 162 kts | 290° |
| 2026-05-08 12:50 | 28.43881 | -16.20931 | 4133 ft | 161 kts | 289° |
| 2026-05-08 12:50 | 28.44278 | -16.22118 | 3929 ft | 160 kts | 289° |
| 2026-05-08 12:51 | 28.44674 | -16.23305 | 3723 ft | 160 kts | 289° |
| 2026-05-08 12:51 | 28.45462 | -16.25680 | 3292 ft | 161 kts | 290° |
| 2026-05-08 12:51 | 28.45857 | -16.26875 | 2929 ft | 160 kts | 289° |
| 2026-05-08 12:52 | 28.46244 | -16.28060 | 2753 ft | 159 kts | 290° |
| 2026-05-08 12:52 | 28.47017 | -16.30385 | 2434 ft | 155 kts | 290° |
| 2026-05-08 12:52 | 28.47395 | -16.31531 | 2257 ft | 154 kts | 291° |
| 2026-05-08 12:53 | 28.47773 | -16.32666 | 2061 ft | 151 kts | 291° |
| 2026-05-08 12:53 | 28.48074 | -16.33581 | 2059 ft | 87 kts | 291° |
| 2026-05-08 12:53 | 28.48258 | -16.34140 | 2068 ft | 69 kts | 290° |
| 2026-05-08 12:53 | 28.48415 | -16.34609 | 2072 ft | 59 kts | 291° |
| 2026-05-08 12:54 | 28.48544 | -16.34985 | 2081 ft | 41 kts | 291° |
| 2026-05-08 12:54 | 28.48633 | -16.35208 | 2085 ft | 24 kts | 304° |
| 2026-05-08 12:54 | 28.48692 | -16.35296 | 2088 ft | 0 kts | 313° |
| 2026-05-08 12:54 | 28.48692 | -16.35297 | 2088 ft | 0 kts | 313° |
| 2026-05-08 12:55 | 28.48694 | -16.35299 | 2086 ft | 1 kts | 315° |
| 2026-05-08 12:55 | 28.48701 | -16.35305 | 2086 ft | 1 kts | 330° |
| 2026-05-08 12:55 | 28.48718 | -16.35314 | 2088 ft | 4 kts | 333° |
| 2026-05-08 12:55 | 28.48740 | -16.35311 | 2086 ft | 3 kts | 39° |
| 2026-05-08 12:56 | 28.48748 | -16.35272 | 2086 ft | 7 kts | 97° |
| 2026-05-08 12:56 | 28.48729 | -16.35199 | 2085 ft | 12 kts | 108° |
| 2026-05-08 12:56 | 28.48701 | -16.35105 | 2083 ft | 12 kts | 110° |
| 2026-05-08 12:56 | 28.48667 | -16.35008 | 2081 ft | 14 kts | 112° |
| 2026-05-08 12:57 | 28.48627 | -16.34889 | 2081 ft | 18 kts | 110° |
| 2026-05-08 12:57 | 28.48600 | -16.34806 | 2077 ft | 9 kts | 111° |
| 2026-05-08 12:57 | 28.48574 | -16.34726 | 2076 ft | 13 kts | 111° |
| 2026-05-08 12:57 | 28.48545 | -16.34640 | 2074 ft | 9 kts | 111° |
| 2026-05-08 12:58 | 28.48547 | -16.34594 | 2073 ft | 5 kts | 51° |
| 2026-05-08 12:58 | 28.48587 | -16.34572 | 2071 ft | 7 kts | 21° |
| 2026-05-08 12:58 | 28.48624 | -16.34556 | 2073 ft | 5 kts | 20° |
| 2026-05-08 12:58 | 28.48625 | -16.34556 | 2073 ft | 0 kts | 20° |